Time;durP1;ratioP1;P1;durP2;ratioP2;P2;SDS_P1;SDS_P2;PMS_P1;PMS_P2;Temp;Humidity;BMP_temperature;BMP_pressure;BME280_temperature;BME280_humidity;BME280_pressure;Samples;Min_cycle;Max_cycle;Signal;HPM_P1;HPM_P2
2022/04/14 00:00:43;;;;;;;0.00;0.00;;;;;;;;;;1747636;28;20746;-60
2022/04/14 00:01:36;;;;;;;0.00;0.00;;;;;;;;;;1748677;28;20680;-59
2022/04/14 00:02:28;;;;;;;0.00;0.00;;;;;;;;;;1751634;28;20229;-58
2022/04/14 00:03:19;;;;;;;0.00;0.00;;;;;;;;;;1750742;28;20209;-59
2022/04/14 00:04:11;;;;;;;0.00;0.00;;;;;;;;;;1751610;28;20209;-60
2022/04/14 00:05:03;;;;;;;0.00;0.00;;;;;;;;;;1745021;28;20295;-60
2022/04/14 00:05:55;;;;;;;0.00;0.00;;;;;;;;;;1745144;28;20239;-60
2022/04/14 00:06:46;;;;;;;0.00;0.00;;;;;;;;;;1752074;28;20612;-60
2022/04/14 00:07:39;;;;;;;0.00;0.00;;;;;;;;;;1751613;28;20205;-59
2022/04/14 00:08:30;;;;;;;0.00;0.00;;;;;;;;;;1752653;28;20213;-59
2022/04/14 00:09:23;;;;;;;0.00;0.00;;;;;;;;;;1751776;28;20245;-59
2022/04/14 00:10:15;;;;;;;0.00;0.00;;;;;;;;;;1752021;28;20244;-59
2022/04/14 00:11:08;;;;;;;0.00;0.00;;;;;;;;;;1746657;28;20237;-60
2022/04/14 00:11:59;;;;;;;0.00;0.00;;;;;;;;;;1751125;28;20205;-59
2022/04/14 00:12:51;;;;;;;0.00;0.00;;;;;;;;;;1751261;28;20210;-59
2022/04/14 00:13:43;;;;;;;0.00;0.00;;;;;;;;;;1752217;28;20202;-59
2022/04/14 00:14:35;;;;;;;0.00;0.00;;;;;;;;;;1750547;28;20232;-59
2022/04/14 00:15:27;;;;;;;0.00;0.00;;;;;;;;;;1749210;28;20232;-59
2022/04/14 00:16:21;;;;;;;0.00;0.00;;;;;;;;;;1747772;28;20256;-59
2022/04/14 00:17:12;;;;;;;0.00;0.00;;;;;;;;;;1752107;28;20237;-59
2022/04/14 00:18:04;;;;;;;0.00;0.00;;;;;;;;;;1747576;28;20619;-59
2022/04/14 00:18:55;;;;;;;0.00;0.00;;;;;;;;;;1751105;28;20668;-59
2022/04/14 00:19:47;;;;;;;0.00;0.00;;;;;;;;;;1746573;28;20724;-59
2022/04/14 00:20:39;;;;;;;0.00;0.00;;;;;;;;;;1744016;28;20498;-58
2022/04/14 00:21:31;;;;;;;0.00;0.00;;;;;;;;;;1751207;28;20200;-59
2022/04/14 00:22:22;;;;;;;0.00;0.00;;;;;;;;;;1751954;28;20202;-59
2022/04/14 00:23:15;;;;;;;0.00;0.00;;;;;;;;;;1748375;28;20213;-59
2022/04/14 00:24:06;;;;;;;0.00;0.00;;;;;;;;;;1751428;28;20209;-59
2022/04/14 00:24:58;;;;;;;0.00;0.00;;;;;;;;;;1745044;28;20232;-60
2022/04/14 00:25:49;;;;;;;0.00;0.00;;;;;;;;;;1744097;28;20700;-59
2022/04/14 00:26:44;;;;;;;0.00;0.00;;;;;;;;;;1748334;28;20198;-60
2022/04/14 00:27:35;;;;;;;0.00;0.00;;;;;;;;;;1751732;28;20201;-59
2022/04/14 00:28:27;;;;;;;0.00;0.00;;;;;;;;;;1752357;28;20209;-59
2022/04/14 00:29:19;;;;;;;0.00;0.00;;;;;;;;;;1751949;28;20580;-59
2022/04/14 00:30:12;;;;;;;0.00;0.00;;;;;;;;;;1751768;28;20263;-59
2022/04/14 00:31:04;;;;;;;0.00;0.00;;;;;;;;;;1748808;28;20287;-59
2022/04/14 00:31:57;;;;;;;0.00;0.00;;;;;;;;;;1751399;28;20197;-59
2022/04/14 00:32:49;;;;;;;0.00;0.00;;;;;;;;;;1748932;28;20638;-59
2022/04/14 00:33:41;;;;;;;0.00;0.00;;;;;;;;;;1749161;28;20256;-58
2022/04/14 00:34:32;;;;;;;0.00;0.00;;;;;;;;;;1745959;28;20206;-59
2022/04/14 00:35:24;;;;;;;0.00;0.00;;;;;;;;;;1742745;28;20601;-59
2022/04/14 00:36:16;;;;;;;0.00;0.00;;;;;;;;;;1747191;28;20238;-59
2022/04/14 00:37:09;;;;;;;0.00;0.00;;;;;;;;;;1751869;28;20266;-59
2022/04/14 00:38:00;;;;;;;0.00;0.00;;;;;;;;;;1747550;28;20205;-59
2022/04/14 00:38:52;;;;;;;0.00;0.00;;;;;;;;;;1752261;28;20543;-59
2022/04/14 00:39:44;;;;;;;0.00;0.00;;;;;;;;;;1751333;28;20202;-59
2022/04/14 00:40:36;;;;;;;0.00;0.00;;;;;;;;;;1749434;28;20229;-59
2022/04/14 00:41:28;;;;;;;0.00;0.00;;;;;;;;;;1741217;28;20210;-59
2022/04/14 00:42:20;;;;;;;0.00;0.00;;;;;;;;;;1752101;28;20226;-60
2022/04/14 00:43:11;;;;;;;0.00;0.00;;;;;;;;;;1751447;28;20229;-59
2022/04/14 00:44:03;;;;;;;0.00;0.00;;;;;;;;;;1750882;28;20202;-60
2022/04/14 00:44:54;;;;;;;0.00;0.00;;;;;;;;;;1750872;28;20664;-59
2022/04/14 00:45:47;;;;;;;0.00;0.00;;;;;;;;;;1749472;28;20316;-60
2022/04/14 00:46:38;;;;;;;0.00;0.00;;;;;;;;;;1752178;28;20229;-59
2022/04/14 00:47:32;;;;;;;0.00;0.00;;;;;;;;;;1752042;28;20263;-59
2022/04/14 00:48:23;;;;;;;0.00;0.00;;;;;;;;;;1751464;28;20205;-59
2022/04/14 00:49:15;;;;;;;0.00;0.00;;;;;;;;;;1751647;28;20197;-59
2022/04/14 00:50:07;;;;;;;0.00;0.00;;;;;;;;;;1751250;28;20209;-59
2022/04/14 00:51:00;;;;;;;0.00;0.00;;;;;;;;;;1747748;28;20632;-59
2022/04/14 00:51:51;;;;;;;0.00;0.00;;;;;;;;;;1752219;28;20210;-59
2022/04/14 00:52:47;;;;;;;0.00;0.00;;;;;;;;;;1750889;28;20197;-60
2022/04/14 00:53:39;;;;;;;0.00;0.00;;;;;;;;;;1750139;28;20205;-59
2022/04/14 00:54:32;;;;;;;0.00;0.00;;;;;;;;;;1747755;28;20612;-59
2022/04/14 00:55:23;;;;;;;0.00;0.00;;;;;;;;;;1749357;28;20207;-59
2022/04/14 00:56:16;;;;;;;0.00;0.00;;;;;;;;;;1751396;28;20271;-60
2022/04/14 00:57:07;;;;;;;0.00;0.00;;;;;;;;;;1751559;28;20217;-60
2022/04/14 00:57:59;;;;;;;0.00;0.00;;;;;;;;;;1747142;28;20202;-59
2022/04/14 00:58:50;;;;;;;0.08;0.08;;;;;;;;;;1741078;28;20206;-59
2022/04/14 00:59:42;;;;;;;0.00;0.00;;;;;;;;;;1750475;28;20201;-60
2022/04/14 01:00:34;;;;;;;0.00;0.00;;;;;;;;;;1748690;28;20240;-60
2022/04/14 01:01:26;;;;;;;0.00;0.00;;;;;;;;;;1749758;28;20555;-59
2022/04/14 01:02:17;;;;;;;0.00;0.00;;;;;;;;;;1752081;28;20248;-59
2022/04/14 01:03:11;;;;;;;0.00;0.00;;;;;;;;;;1749407;28;20679;-59
2022/04/14 01:04:03;;;;;;;0.00;0.00;;;;;;;;;;1751529;28;20594;-60
2022/04/14 01:04:55;;;;;;;0.00;0.00;;;;;;;;;;1751998;28;20216;-60
2022/04/14 01:05:46;;;;;;;0.00;0.00;;;;;;;;;;1749170;28;20712;-59
2022/04/14 01:06:39;;;;;;;0.00;0.00;;;;;;;;;;1752152;28;20727;-59
2022/04/14 01:07:30;;;;;;;0.00;0.00;;;;;;;;;;1751642;28;20205;-59
2022/04/14 01:08:23;;;;;;;0.00;0.00;;;;;;;;;;1752005;28;20208;-60
2022/04/14 01:09:19;;;;;;;0.00;0.00;;;;;;;;;;1749692;28;20571;-59
2022/04/14 01:10:11;;;;;;;0.00;0.00;;;;;;;;;;1750106;28;20634;-59
2022/04/14 01:11:04;;;;;;;0.00;0.00;;;;;;;;;;1751046;28;20244;-59
2022/04/14 01:11:57;;;;;;;0.00;0.00;;;;;;;;;;1752106;28;20248;-59
2022/04/14 01:12:48;;;;;;;0.00;0.00;;;;;;;;;;1748537;28;20206;-59
2022/04/14 01:13:40;;;;;;;0.00;0.00;;;;;;;;;;1746392;28;20222;-60
2022/04/14 01:14:32;;;;;;;0.00;0.00;;;;;;;;;;1751537;28;20208;-59
2022/04/14 01:15:24;;;;;;;0.00;0.00;;;;;;;;;;1748505;28;20689;-60
2022/04/14 01:16:15;;;;;;;0.00;0.00;;;;;;;;;;1750138;28;20233;-59
2022/04/14 01:17:08;;;;;;;0.00;0.00;;;;;;;;;;1752029;28;20325;-59
2022/04/14 01:17:59;;;;;;;0.00;0.00;;;;;;;;;;1746686;28;20206;-60
2022/04/14 01:18:53;;;;;;;0.00;0.00;;;;;;;;;;1741075;28;20202;-59
2022/04/14 01:19:44;;;;;;;0.00;0.00;;;;;;;;;;1750775;28;20707;-59
2022/04/14 01:20:36;;;;;;;0.00;0.00;;;;;;;;;;1749309;28;20201;-60
2022/04/14 01:21:33;;;;;;;0.00;0.00;;;;;;;;;;1747132;28;20209;-59
2022/04/14 01:22:25;;;;;;;0.00;0.00;;;;;;;;;;1750986;28;20278;-60
2022/04/14 01:23:19;;;;;;;0.00;0.00;;;;;;;;;;1748487;28;20202;-59
2022/04/14 01:24:13;;;;;;;0.00;0.00;;;;;;;;;;1750953;28;20391;-59
2022/04/14 01:25:04;;;;;;;0.00;0.00;;;;;;;;;;1752168;28;20217;-60
2022/04/14 01:25:56;;;;;;;0.00;0.00;;;;;;;;;;1748234;28;20312;-60
2022/04/14 01:26:47;;;;;;;0.00;0.00;;;;;;;;;;1749062;28;20206;-59
2022/04/14 01:27:40;;;;;;;0.00;0.00;;;;;;;;;;1750307;28;20289;-59
2022/04/14 01:28:31;;;;;;;0.00;0.00;;;;;;;;;;1748793;28;20848;-59
2022/04/14 01:29:24;;;;;;;0.00;0.00;;;;;;;;;;1750268;28;20292;-60
2022/04/14 01:30:15;;;;;;;0.00;0.00;;;;;;;;;;1743172;28;20206;-60
2022/04/14 01:31:07;;;;;;;0.00;0.00;;;;;;;;;;1741172;28;20257;-59
2022/04/14 01:32:01;;;;;;;0.00;0.00;;;;;;;;;;1746250;28;20213;-59
2022/04/14 01:32:53;;;;;;;0.00;0.00;;;;;;;;;;1746501;28;20308;-58
2022/04/14 01:33:45;;;;;;;0.00;0.00;;;;;;;;;;1753043;28;20217;-60
2022/04/14 01:34:37;;;;;;;0.00;0.00;;;;;;;;;;1750639;28;20577;-60
2022/04/14 01:35:28;;;;;;;0.00;0.00;;;;;;;;;;1750576;28;20202;-59
2022/04/14 01:36:20;;;;;;;0.00;0.00;;;;;;;;;;1750940;28;20225;-60
2022/04/14 01:37:12;;;;;;;0.00;0.00;;;;;;;;;;1746006;28;20206;-59
2022/04/14 01:38:04;;;;;;;0.00;0.00;;;;;;;;;;1749744;28;20702;-58
2022/04/14 01:38:55;;;;;;;0.00;0.00;;;;;;;;;;1746294;28;20207;-59
2022/04/14 01:39:48;;;;;;;0.00;0.00;;;;;;;;;;1748989;28;20223;-60
2022/04/14 01:40:40;;;;;;;0.00;0.00;;;;;;;;;;1744907;28;20549;-61
2022/04/14 01:41:32;;;;;;;0.00;0.00;;;;;;;;;;1751858;28;20229;-59
2022/04/14 01:42:23;;;;;;;0.00;0.00;;;;;;;;;;1752934;28;20668;-59
2022/04/14 01:43:15;;;;;;;0.00;0.00;;;;;;;;;;1752757;28;20193;-59
2022/04/14 01:44:07;;;;;;;0.00;0.00;;;;;;;;;;1752112;28;20595;-59
2022/04/14 01:44:59;;;;;;;0.00;0.00;;;;;;;;;;1753051;28;20288;-60
2022/04/14 01:45:51;;;;;;;0.00;0.00;;;;;;;;;;1744235;28;20723;-60
2022/04/14 01:46:43;;;;;;;0.00;0.00;;;;;;;;;;1738822;28;20399;-59
2022/04/14 01:47:38;;;;;;;0.00;0.00;;;;;;;;;;1739957;28;20206;-60
2022/04/14 01:48:30;;;;;;;0.00;0.00;;;;;;;;;;1742359;28;20203;-60
2022/04/14 01:49:21;;;;;;;0.00;0.00;;;;;;;;;;1740967;28;20206;-60
2022/04/14 01:50:14;;;;;;;0.00;0.00;;;;;;;;;;1739253;28;20202;-59
2022/04/14 01:51:06;;;;;;;0.00;0.00;;;;;;;;;;1742962;28;20234;-58
2022/04/14 01:51:58;;;;;;;0.00;0.00;;;;;;;;;;1745692;28;20202;-59
2022/04/14 01:52:49;;;;;;;0.00;0.00;;;;;;;;;;1745664;28;20194;-60
2022/04/14 01:53:42;;;;;;;0.00;0.00;;;;;;;;;;1742102;28;20660;-58
2022/04/14 01:54:33;;;;;;;0.00;0.00;;;;;;;;;;1744576;28;20454;-59
2022/04/14 01:55:26;;;;;;;0.00;0.00;;;;;;;;;;1737449;28;20728;-59
2022/04/14 01:56:18;;;;;;;0.00;0.00;;;;;;;;;;1739965;28;20223;-60
2022/04/14 01:57:10;;;;;;;0.00;0.00;;;;;;;;;;1739358;28;20294;-59
2022/04/14 01:58:01;;;;;;;0.00;0.00;;;;;;;;;;1743202;28;20213;-59
2022/04/14 01:58:53;;;;;;;0.00;0.00;;;;;;;;;;1739085;28;20298;-60
2022/04/14 01:59:45;;;;;;;0.00;0.00;;;;;;;;;;1743264;28;20206;-59
2022/04/14 02:00:37;;;;;;;0.00;0.00;;;;;;;;;;1736673;28;20665;-60
2022/04/14 02:01:28;;;;;;;0.00;0.00;;;;;;;;;;1741593;28;20321;-60
2022/04/14 02:02:20;;;;;;;0.00;0.00;;;;;;;;;;1746323;28;20723;-59
2022/04/14 02:03:11;;;;;;;0.00;0.00;;;;;;;;;;1744334;28;20599;-59
2022/04/14 02:04:05;;;;;;;0.00;0.00;;;;;;;;;;1743570;28;20672;-59
2022/04/14 02:04:56;;;;;;;0.00;0.00;;;;;;;;;;1739805;28;20218;-59
2022/04/14 02:05:48;;;;;;;0.00;0.00;;;;;;;;;;1736128;28;20262;-60
2022/04/14 02:06:39;;;;;;;0.00;0.00;;;;;;;;;;1739593;28;20237;-59
2022/04/14 02:07:31;;;;;;;0.00;0.00;;;;;;;;;;1741008;28;20210;-59
2022/04/14 02:08:22;;;;;;;0.00;0.00;;;;;;;;;;1738967;28;20203;-59
2022/04/14 02:09:15;;;;;;;0.00;0.00;;;;;;;;;;1740798;28;20207;-59
2022/04/14 02:10:06;;;;;;;0.00;0.00;;;;;;;;;;1742350;28;20582;-59
2022/04/14 02:11:00;;;;;;;0.00;0.00;;;;;;;;;;1742045;28;20792;-59
2022/04/14 02:11:51;;;;;;;0.00;0.00;;;;;;;;;;1741396;28;20210;-59
2022/04/14 02:12:45;;;;;;;0.00;0.00;;;;;;;;;;1740226;28;20310;-59
2022/04/14 02:13:36;;;;;;;0.00;0.00;;;;;;;;;;1741308;28;20282;-59
2022/04/14 02:14:28;;;;;;;0.00;0.00;;;;;;;;;;1740121;28;20562;-59
2022/04/14 02:15:20;;;;;;;0.00;0.00;;;;;;;;;;1744511;28;20237;-60
2022/04/14 02:16:13;;;;;;;0.00;0.00;;;;;;;;;;1741816;28;20261;-60
2022/04/14 02:17:04;;;;;;;0.00;0.00;;;;;;;;;;1745988;28;20234;-60
2022/04/14 02:17:57;;;;;;;0.00;0.00;;;;;;;;;;1742840;28;20257;-60
2022/04/14 02:18:49;;;;;;;0.00;0.00;;;;;;;;;;1745121;28;20236;-59
2022/04/14 02:19:41;;;;;;;0.00;0.00;;;;;;;;;;1744548;28;20206;-60
2022/04/14 02:20:32;;;;;;;0.00;0.00;;;;;;;;;;1736213;28;20605;-60
2022/04/14 02:21:24;;;;;;;0.00;0.00;;;;;;;;;;1744657;28;20632;-60
2022/04/14 02:22:16;;;;;;;0.00;0.00;;;;;;;;;;1739170;28;20218;-60
2022/04/14 02:23:08;;;;;;;0.00;0.00;;;;;;;;;;1744400;28;20198;-60
2022/04/14 02:23:59;;;;;;;0.00;0.00;;;;;;;;;;1739026;28;20226;-59
2022/04/14 02:24:51;;;;;;;0.00;0.00;;;;;;;;;;1740990;28;20199;-59
2022/04/14 02:25:42;;;;;;;0.00;0.00;;;;;;;;;;1740308;28;20755;-60
2022/04/14 02:26:36;;;;;;;0.00;0.00;;;;;;;;;;1744027;28;20577;-60
2022/04/14 02:27:27;;;;;;;0.00;0.00;;;;;;;;;;1740289;28;20491;-60
2022/04/14 02:28:19;;;;;;;0.00;0.00;;;;;;;;;;1742502;28;20720;-59
2022/04/14 02:29:11;;;;;;;0.00;0.00;;;;;;;;;;1745733;28;20213;-59
2022/04/14 02:30:03;;;;;;;0.00;0.00;;;;;;;;;;1745807;28;20206;-60
2022/04/14 02:30:54;;;;;;;0.00;0.00;;;;;;;;;;1745792;28;20260;-60
2022/04/14 02:31:46;;;;;;;0.00;0.00;;;;;;;;;;1745097;28;20287;-59
2022/04/14 02:32:37;;;;;;;0.00;0.00;;;;;;;;;;1745803;28;20739;-59
2022/04/14 02:33:30;;;;;;;0.00;0.00;;;;;;;;;;1742474;28;20199;-60
2022/04/14 02:34:21;;;;;;;0.00;0.00;;;;;;;;;;1745460;28;20554;-60
2022/04/14 02:35:13;;;;;;;0.00;0.00;;;;;;;;;;1740683;28;20270;-60
2022/04/14 02:36:04;;;;;;;0.00;0.00;;;;;;;;;;1740517;28;20839;-60
2022/04/14 02:36:57;;;;;;;0.00;0.00;;;;;;;;;;1743637;28;20206;-60
2022/04/14 02:37:48;;;;;;;0.00;0.00;;;;;;;;;;1743354;28;20660;-60
2022/04/14 02:38:43;;;;;;;0.00;0.00;;;;;;;;;;1739385;28;20286;-60
2022/04/14 02:39:34;;;;;;;0.00;0.00;;;;;;;;;;1744286;28;20190;-60
2022/04/14 02:40:27;;;;;;;0.00;0.00;;;;;;;;;;1743150;28;20248;-60
2022/04/14 02:41:18;;;;;;;0.00;0.00;;;;;;;;;;1742049;28;20211;-60
2022/04/14 02:42:11;;;;;;;0.00;0.00;;;;;;;;;;1739184;28;20625;-60
2022/04/14 02:43:03;;;;;;;0.00;0.00;;;;;;;;;;1740722;28;20211;-60
2022/04/14 02:43:55;;;;;;;0.00;0.00;;;;;;;;;;1744931;28;20337;-60
2022/04/14 02:44:46;;;;;;;0.00;0.00;;;;;;;;;;1745016;28;20202;-60
2022/04/14 02:45:39;;;;;;;0.00;0.00;;;;;;;;;;1736578;28;20667;-60
2022/04/14 02:46:30;;;;;;;0.00;0.00;;;;;;;;;;1740624;28;20219;-60
2022/04/14 02:47:22;;;;;;;0.00;0.00;;;;;;;;;;1739112;28;20226;-60
2022/04/14 02:48:13;;;;;;;0.00;0.00;;;;;;;;;;1744326;28;20202;-60
2022/04/14 02:49:05;;;;;;;0.00;0.00;;;;;;;;;;1740007;28;20233;-60
2022/04/14 02:49:56;;;;;;;0.00;0.00;;;;;;;;;;1742331;28;20684;-60
2022/04/14 02:50:49;;;;;;;0.00;0.00;;;;;;;;;;1742970;28;20237;-60
2022/04/14 02:51:40;;;;;;;0.00;0.00;;;;;;;;;;1744939;28;20214;-60
2022/04/14 02:52:32;;;;;;;0.00;0.00;;;;;;;;;;1746001;28;20198;-60
2022/04/14 02:53:24;;;;;;;0.00;0.00;;;;;;;;;;1746375;28;20209;-60
2022/04/14 02:54:17;;;;;;;0.00;0.00;;;;;;;;;;1745427;28;20202;-60
2022/04/14 02:55:08;;;;;;;0.00;0.00;;;;;;;;;;1741053;28;20222;-60
2022/04/14 02:56:01;;;;;;;0.00;0.00;;;;;;;;;;1740077;28;20262;-60
2022/04/14 02:56:52;;;;;;;0.00;0.00;;;;;;;;;;1739002;28;20609;-60
2022/04/14 02:57:45;;;;;;;0.00;0.00;;;;;;;;;;1742874;28;20210;-60
2022/04/14 02:58:37;;;;;;;0.00;0.00;;;;;;;;;;1746375;28;20202;-60
2022/04/14 02:59:29;;;;;;;0.00;0.00;;;;;;;;;;1746015;28;20264;-60
2022/04/14 03:00:20;;;;;;;0.00;0.00;;;;;;;;;;1743188;28;20289;-60
2022/04/14 03:01:12;;;;;;;0.00;0.00;;;;;;;;;;1744271;28;20648;-60
2022/04/14 03:02:04;;;;;;;0.00;0.00;;;;;;;;;;1745779;28;20259;-60
2022/04/14 03:02:56;;;;;;;0.00;0.00;;;;;;;;;;1743564;28;20554;-60
2022/04/14 03:03:47;;;;;;;0.00;0.00;;;;;;;;;;1739645;28;20573;-60
2022/04/14 03:04:40;;;;;;;0.00;0.00;;;;;;;;;;1742803;28;20267;-60
2022/04/14 03:05:31;;;;;;;0.00;0.00;;;;;;;;;;1736679;28;20603;-60
2022/04/14 03:06:23;;;;;;;0.00;0.00;;;;;;;;;;1740630;28;20739;-60
2022/04/14 03:07:14;;;;;;;0.00;0.00;;;;;;;;;;1746309;28;20698;-59
2022/04/14 03:08:07;;;;;;;0.00;0.00;;;;;;;;;;1741304;28;20225;-60
2022/04/14 03:08:58;;;;;;;0.00;0.00;;;;;;;;;;1738208;28;20572;-60
2022/04/14 03:09:50;;;;;;;0.00;0.00;;;;;;;;;;1741577;28;20205;-60
2022/04/14 03:10:41;;;;;;;0.00;0.00;;;;;;;;;;1743029;28;20317;-60
2022/04/14 03:11:33;;;;;;;0.00;0.00;;;;;;;;;;1746814;28;20202;-60
2022/04/14 03:12:24;;;;;;;0.00;0.00;;;;;;;;;;1745693;28;20210;-60
2022/04/14 03:13:20;;;;;;;0.00;0.00;;;;;;;;;;1746017;28;20478;-60
2022/04/14 03:14:11;;;;;;;0.00;0.00;;;;;;;;;;1745778;28;20624;-60
2022/04/14 03:15:03;;;;;;;0.00;0.00;;;;;;;;;;1742138;28;20203;-60
2022/04/14 03:15:54;;;;;;;0.00;0.00;;;;;;;;;;1737423;28;20246;-60
2022/04/14 03:16:47;;;;;;;0.00;0.00;;;;;;;;;;1742279;28;20253;-60
2022/04/14 03:17:38;;;;;;;0.00;0.00;;;;;;;;;;1733669;28;20204;-60
2022/04/14 03:18:30;;;;;;;0.00;0.00;;;;;;;;;;1728066;28;20291;-60
2022/04/14 03:19:21;;;;;;;0.10;0.10;;;;;;;;;;1728323;28;20576;-60
2022/04/14 03:20:13;;;;;;;0.00;0.00;;;;;;;;;;1733122;28;20230;-60
2022/04/14 03:21:05;;;;;;;0.00;0.00;;;;;;;;;;1732331;28;20328;-60
2022/04/14 03:21:58;;;;;;;0.00;0.00;;;;;;;;;;1733331;28;20570;-60
2022/04/14 03:22:49;;;;;;;0.00;0.00;;;;;;;;;;1735127;28;20749;-60
2022/04/14 03:23:41;;;;;;;0.00;0.00;;;;;;;;;;1733543;28;20578;-60
2022/04/14 03:24:34;;;;;;;0.00;0.00;;;;;;;;;;1735509;28;20550;-60
2022/04/14 03:25:26;;;;;;;0.00;0.00;;;;;;;;;;1731199;28;20714;-60
2022/04/14 03:26:17;;;;;;;0.00;0.00;;;;;;;;;;1739364;28;20238;-60
2022/04/14 03:27:12;;;;;;;0.00;0.00;;;;;;;;;;1731948;28;20258;-60
2022/04/14 03:28:03;;;;;;;0.00;0.00;;;;;;;;;;1737043;28;20203;-60
2022/04/14 03:28:57;;;;;;;0.00;0.00;;;;;;;;;;1731892;28;20323;-60
2022/04/14 03:29:48;;;;;;;0.00;0.00;;;;;;;;;;1737594;28;20207;-60
2022/04/14 03:30:40;;;;;;;0.00;0.00;;;;;;;;;;1734058;28;20261;-60
2022/04/14 03:31:31;;;;;;;0.00;0.00;;;;;;;;;;1738301;28;20199;-60
2022/04/14 03:32:25;;;;;;;0.00;0.00;;;;;;;;;;1745174;28;20213;-60
2022/04/14 03:33:16;;;;;;;0.00;0.00;;;;;;;;;;1736107;28;20214;-60
2022/04/14 03:34:08;;;;;;;0.00;0.00;;;;;;;;;;1740952;28;20194;-60
2022/04/14 03:35:03;;;;;;;0.00;0.00;;;;;;;;;;1734717;28;20581;-60
2022/04/14 03:35:55;;;;;;;0.00;0.00;;;;;;;;;;1736498;28;20226;-60
2022/04/14 03:36:47;;;;;;;0.00;0.00;;;;;;;;;;1735401;28;20310;-60
2022/04/14 03:37:39;;;;;;;0.00;0.00;;;;;;;;;;1734799;28;20214;-60
2022/04/14 03:38:31;;;;;;;0.00;0.00;;;;;;;;;;1734704;28;20550;-60
2022/04/14 03:39:22;;;;;;;0.00;0.00;;;;;;;;;;1728398;28;20203;-60
2022/04/14 03:40:15;;;;;;;0.00;0.00;;;;;;;;;;1734837;28;20641;-60
2022/04/14 03:41:07;;;;;;;0.00;0.00;;;;;;;;;;1736123;28;20242;-60
2022/04/14 03:41:59;;;;;;;0.00;0.00;;;;;;;;;;1733511;28;20207;-60
2022/04/14 03:42:50;;;;;;;0.00;0.00;;;;;;;;;;1735181;28;20731;-60
2022/04/14 03:43:42;;;;;;;0.00;0.00;;;;;;;;;;1732729;28;20587;-60
2022/04/14 03:44:35;;;;;;;0.00;0.00;;;;;;;;;;1736104;28;20203;-60
2022/04/14 03:45:27;;;;;;;0.10;0.10;;;;;;;;;;1729039;28;20227;-60
2022/04/14 03:46:19;;;;;;;0.00;0.00;;;;;;;;;;1735989;28;20223;-60
2022/04/14 03:47:11;;;;;;;0.00;0.00;;;;;;;;;;1731071;28;20258;-60
2022/04/14 03:48:02;;;;;;;0.00;0.00;;;;;;;;;;1737406;28;20494;-60
2022/04/14 03:48:58;;;;;;;0.00;0.00;;;;;;;;;;1731891;28;20208;-60
2022/04/14 03:49:50;;;;;;;0.00;0.00;;;;;;;;;;1736152;28;20226;-60
2022/04/14 03:50:42;;;;;;;0.00;0.00;;;;;;;;;;1736174;28;20318;-60
2022/04/14 03:51:34;;;;;;;0.00;0.00;;;;;;;;;;1737473;28;20636;-60
2022/04/14 03:52:26;;;;;;;0.00;0.00;;;;;;;;;;1738016;28;20231;-60
2022/04/14 03:53:17;;;;;;;0.00;0.00;;;;;;;;;;1735857;28;20625;-60
2022/04/14 03:54:09;;;;;;;0.00;0.00;;;;;;;;;;1736837;28;20256;-60
2022/04/14 03:55:01;;;;;;;0.00;0.00;;;;;;;;;;1735912;28;20210;-60
2022/04/14 03:55:53;;;;;;;0.00;0.00;;;;;;;;;;1731134;28;20235;-60
2022/04/14 03:56:46;;;;;;;0.00;0.00;;;;;;;;;;1731364;28;20204;-60
2022/04/14 03:57:38;;;;;;;0.00;0.00;;;;;;;;;;1733829;28;20262;-60
2022/04/14 03:58:29;;;;;;;0.00;0.00;;;;;;;;;;1734422;28;20200;-60
2022/04/14 03:59:22;;;;;;;0.00;0.00;;;;;;;;;;1733406;28;20223;-60
2022/04/14 04:00:15;;;;;;;0.00;0.00;;;;;;;;;;1738071;28;20549;-60
2022/04/14 04:01:07;;;;;;;0.00;0.00;;;;;;;;;;1734793;28;20299;-60
2022/04/14 04:01:58;;;;;;;0.00;0.00;;;;;;;;;;1738367;28;20207;-60
2022/04/14 04:02:50;;;;;;;0.00;0.00;;;;;;;;;;1737992;28;20210;-60
2022/04/14 04:03:41;;;;;;;0.00;0.00;;;;;;;;;;1737357;28;20214;-60
2022/04/14 04:04:33;;;;;;;0.00;0.00;;;;;;;;;;1737686;28;20210;-60
2022/04/14 04:05:25;;;;;;;0.00;0.00;;;;;;;;;;1729260;28;20222;-60
2022/04/14 04:06:17;;;;;;;0.00;0.00;;;;;;;;;;1735865;28;20518;-60
2022/04/14 04:07:08;;;;;;;0.00;0.00;;;;;;;;;;1731954;28;20641;-60
2022/04/14 04:08:01;;;;;;;0.00;0.00;;;;;;;;;;1733915;28;20205;-60
2022/04/14 04:08:52;;;;;;;0.00;0.00;;;;;;;;;;1731495;28;20208;-60
2022/04/14 04:09:44;;;;;;;0.00;0.00;;;;;;;;;;1733825;28;20199;-60
2022/04/14 04:10:35;;;;;;;0.00;0.00;;;;;;;;;;1729144;28;20322;-60
2022/04/14 04:11:27;;;;;;;0.00;0.00;;;;;;;;;;1736482;28;20209;-60
2022/04/14 04:12:21;;;;;;;0.03;0.03;;;;;;;;;;1731014;28;20211;-60
2022/04/14 04:13:15;;;;;;;0.00;0.00;;;;;;;;;;1737031;28;20298;-60
2022/04/14 04:14:06;;;;;;;0.00;0.00;;;;;;;;;;1731915;28;20218;-60
2022/04/14 04:14:58;;;;;;;0.00;0.00;;;;;;;;;;1738117;28;20213;-60
2022/04/14 04:15:51;;;;;;;0.00;0.00;;;;;;;;;;1736053;28;20239;-60
2022/04/14 04:16:44;;;;;;;0.00;0.00;;;;;;;;;;1735380;28;20230;-60
2022/04/14 04:17:36;;;;;;;0.00;0.00;;;;;;;;;;1733626;28;20239;-60
2022/04/14 04:18:30;;;;;;;0.00;0.00;;;;;;;;;;1734147;28;20199;-60
2022/04/14 04:19:22;;;;;;;0.00;0.00;;;;;;;;;;1744906;28;20294;-60
2022/04/14 04:20:15;;;;;;;0.00;0.00;;;;;;;;;;1738718;28;20615;-60
2022/04/14 04:21:06;;;;;;;0.00;0.00;;;;;;;;;;1741431;28;20234;-60
2022/04/14 04:21:58;;;;;;;0.10;0.10;;;;;;;;;;1740361;28;20639;-60
2022/04/14 04:22:49;;;;;;;0.00;0.00;;;;;;;;;;1742507;28;20206;-60
2022/04/14 04:23:41;;;;;;;0.00;0.00;;;;;;;;;;1739563;28;20562;-60
2022/04/14 04:24:32;;;;;;;0.00;0.00;;;;;;;;;;1742652;28;20202;-60
2022/04/14 04:25:26;;;;;;;0.00;0.00;;;;;;;;;;1737322;28;20199;-60
2022/04/14 04:26:17;;;;;;;0.00;0.00;;;;;;;;;;1745781;28;20222;-60
2022/04/14 04:27:10;;;;;;;0.00;0.00;;;;;;;;;;1745415;28;20230;-59
2022/04/14 04:28:01;;;;;;;0.00;0.00;;;;;;;;;;1744711;28;20210;-60
2022/04/14 04:28:53;;;;;;;0.00;0.00;;;;;;;;;;1745435;28;20209;-60
2022/04/14 04:29:44;;;;;;;0.00;0.00;;;;;;;;;;1741022;28;20203;-60
2022/04/14 04:30:36;;;;;;;0.00;0.00;;;;;;;;;;1742007;28;20814;-60
2022/04/14 04:31:29;;;;;;;0.00;0.00;;;;;;;;;;1745016;28;20203;-60
2022/04/14 04:32:21;;;;;;;0.00;0.00;;;;;;;;;;1745220;28;20206;-60
2022/04/14 04:33:12;;;;;;;0.00;0.00;;;;;;;;;;1737879;28;20204;-60
2022/04/14 04:34:05;;;;;;;0.00;0.00;;;;;;;;;;1741866;28;20198;-60
2022/04/14 04:34:56;;;;;;;0.00;0.00;;;;;;;;;;1737431;28;20218;-60
2022/04/14 04:35:48;;;;;;;0.00;0.00;;;;;;;;;;1743944;28;20312;-60
2022/04/14 04:36:39;;;;;;;0.00;0.00;;;;;;;;;;1751817;28;20206;-60
2022/04/14 04:37:32;;;;;;;0.00;0.00;;;;;;;;;;1751231;28;20699;-60
2022/04/14 04:38:23;;;;;;;0.00;0.00;;;;;;;;;;1752069;28;20220;-60
2022/04/14 04:39:15;;;;;;;0.00;0.00;;;;;;;;;;1751732;28;20911;-60
2022/04/14 04:40:07;;;;;;;0.00;0.00;;;;;;;;;;1750128;28;20258;-60
2022/04/14 04:40:59;;;;;;;0.00;0.00;;;;;;;;;;1746434;28;20572;-60
2022/04/14 04:41:50;;;;;;;0.00;0.00;;;;;;;;;;1752228;28;20201;-60
2022/04/14 04:42:42;;;;;;;0.00;0.00;;;;;;;;;;1750787;28;20210;-60
2022/04/14 04:43:33;;;;;;;0.00;0.00;;;;;;;;;;1744834;28;20202;-60
2022/04/14 04:44:25;;;;;;;0.00;0.00;;;;;;;;;;1751194;28;20211;-60
2022/04/14 04:45:17;;;;;;;0.00;0.00;;;;;;;;;;1745103;28;20213;-60
2022/04/14 04:46:09;;;;;;;0.00;0.00;;;;;;;;;;1747962;28;20232;-60
2022/04/14 04:47:01;;;;;;;0.00;0.00;;;;;;;;;;1746843;28;20230;-60
2022/04/14 04:47:54;;;;;;;0.00;0.00;;;;;;;;;;1747084;28;20205;-60
2022/04/14 04:48:45;;;;;;;0.00;0.00;;;;;;;;;;1752070;28;20202;-60
2022/04/14 04:49:37;;;;;;;0.00;0.00;;;;;;;;;;1750230;28;20910;-60
2022/04/14 04:50:28;;;;;;;0.00;0.00;;;;;;;;;;1747763;28;20213;-60
2022/04/14 04:51:20;;;;;;;0.00;0.00;;;;;;;;;;1739343;28;20203;-60
2022/04/14 04:52:12;;;;;;;0.00;0.00;;;;;;;;;;1744461;28;20214;-60
2022/04/14 04:53:04;;;;;;;0.00;0.00;;;;;;;;;;1738803;28;20205;-60
2022/04/14 04:53:55;;;;;;;0.00;0.00;;;;;;;;;;1741639;28;20209;-60
2022/04/14 04:54:48;;;;;;;0.00;0.00;;;;;;;;;;1745010;28;20194;-60
2022/04/14 04:55:39;;;;;;;0.00;0.00;;;;;;;;;;1749350;28;20233;-60
2022/04/14 04:56:31;;;;;;;0.00;0.00;;;;;;;;;;1743761;28;20318;-60
2022/04/14 04:57:22;;;;;;;0.00;0.00;;;;;;;;;;1745420;28;20338;-60
2022/04/14 04:58:15;;;;;;;0.00;0.00;;;;;;;;;;1746330;28;20668;-60
2022/04/14 04:59:06;;;;;;;0.00;0.00;;;;;;;;;;1751164;28;20205;-60
2022/04/14 04:59:58;;;;;;;0.00;0.00;;;;;;;;;;1746979;28;20587;-60
2022/04/14 05:00:49;;;;;;;0.00;0.00;;;;;;;;;;1744474;28;20331;-60
2022/04/14 05:01:42;;;;;;;0.00;0.00;;;;;;;;;;1747560;28;20320;-60
2022/04/14 05:02:34;;;;;;;0.00;0.00;;;;;;;;;;1749104;28;20667;-60
2022/04/14 05:03:26;;;;;;;0.00;0.00;;;;;;;;;;1744577;28;20671;-61
2022/04/14 05:04:18;;;;;;;0.00;0.00;;;;;;;;;;1744687;28;20213;-60
2022/04/14 05:05:10;;;;;;;0.00;0.00;;;;;;;;;;1745054;28;20260;-60
2022/04/14 05:06:01;;;;;;;0.00;0.00;;;;;;;;;;1741584;28;20250;-60
2022/04/14 05:06:53;;;;;;;0.00;0.00;;;;;;;;;;1746433;28;20206;-60
2022/04/14 05:07:45;;;;;;;0.00;0.00;;;;;;;;;;1744447;28;20477;-60
2022/04/14 05:08:37;;;;;;;0.00;0.00;;;;;;;;;;1738826;28;20663;-60
2022/04/14 05:09:28;;;;;;;0.00;0.00;;;;;;;;;;1738676;28;20203;-60
2022/04/14 05:10:20;;;;;;;0.00;0.00;;;;;;;;;;1740809;28;20235;-60
2022/04/14 05:11:12;;;;;;;0.00;0.00;;;;;;;;;;1749203;28;20263;-60
2022/04/14 05:12:04;;;;;;;0.00;0.00;;;;;;;;;;1753554;28;20296;-60